sensor_id;sensor_type;location;lat;lon;timestamp;P1;durP1;ratioP1;P2;durP2;ratioP2
21868;SDS011;11099;41.564;23.296;2023-12-04T00:00:29;8.40;;;5.95;;
21868;SDS011;11099;41.564;23.296;2023-12-04T00:02:55;7.25;;;5.68;;
21868;SDS011;11099;41.564;23.296;2023-12-04T00:05:23;8.05;;;6.35;;
21868;SDS011;11099;41.564;23.296;2023-12-04T00:07:51;7.95;;;6.32;;
21868;SDS011;11099;41.564;23.296;2023-12-04T00:10:20;7.70;;;6.32;;
21868;SDS011;11099;41.564;23.296;2023-12-04T00:12:48;11.27;;;5.57;;
21868;SDS011;11099;41.564;23.296;2023-12-04T00:15:16;7.57;;;5.50;;
21868;SDS011;11099;41.564;23.296;2023-12-04T00:17:46;7.90;;;6.13;;
21868;SDS011;11099;41.564;23.296;2023-12-04T00:20:14;6.90;;;5.20;;
21868;SDS011;11099;41.564;23.296;2023-12-04T00:22:45;6.07;;;5.43;;
21868;SDS011;11099;41.564;23.296;2023-12-04T00:25:13;6.72;;;5.25;;
21868;SDS011;11099;41.564;23.296;2023-12-04T00:27:42;6.38;;;4.53;;
21868;SDS011;11099;41.564;23.296;2023-12-04T00:30:11;5.68;;;4.70;;
21868;SDS011;11099;41.564;23.296;2023-12-04T00:32:41;5.18;;;4.07;;
21868;SDS011;11099;41.564;23.296;2023-12-04T00:35:13;5.00;;;4.50;;
21868;SDS011;11099;41.564;23.296;2023-12-04T00:37:58;6.90;;;4.47;;
21868;SDS011;11099;41.564;23.296;2023-12-04T00:40:28;8.05;;;4.45;;
21868;SDS011;11099;41.564;23.296;2023-12-04T00:43:02;4.85;;;4.35;;
21868;SDS011;11099;41.564;23.296;2023-12-04T00:45:33;5.35;;;4.13;;
21868;SDS011;11099;41.564;23.296;2023-12-04T00:48:04;4.75;;;4.25;;
21868;SDS011;11099;41.564;23.296;2023-12-04T00:50:34;5.40;;;4.70;;
21868;SDS011;11099;41.564;23.296;2023-12-04T00:53:02;5.65;;;4.43;;
21868;SDS011;11099;41.564;23.296;2023-12-04T00:55:54;4.47;;;4.07;;
21868;SDS011;11099;41.564;23.296;2023-12-04T00:58:28;7.70;;;4.50;;
21868;SDS011;11099;41.564;23.296;2023-12-04T01:00:54;4.95;;;4.43;;
21868;SDS011;11099;41.564;23.296;2023-12-04T01:03:25;5.93;;;4.05;;
21868;SDS011;11099;41.564;23.296;2023-12-04T01:05:59;5.35;;;4.68;;
21868;SDS011;11099;41.564;23.296;2023-12-04T01:08:32;7.07;;;4.72;;
21868;SDS011;11099;41.564;23.296;2023-12-04T01:13:37;5.28;;;4.78;;
21868;SDS011;11099;41.564;23.296;2023-12-04T01:16:03;5.00;;;4.53;;
21868;SDS011;11099;41.564;23.296;2023-12-04T01:18:35;6.22;;;5.25;;
21868;SDS011;11099;41.564;23.296;2023-12-04T01:21:04;7.07;;;4.88;;
21868;SDS011;11099;41.564;23.296;2023-12-04T01:23:36;9.77;;;5.60;;
21868;SDS011;11099;41.564;23.296;2023-12-04T01:26:04;8.05;;;5.43;;
21868;SDS011;11099;41.564;23.296;2023-12-04T01:28:31;8.80;;;5.60;;
21868;SDS011;11099;41.564;23.296;2023-12-04T01:31:01;7.63;;;5.65;;
21868;SDS011;11099;41.564;23.296;2023-12-04T01:33:33;7.45;;;6.20;;
21868;SDS011;11099;41.564;23.296;2023-12-04T01:36:07;8.48;;;6.00;;
21868;SDS011;11099;41.564;23.296;2023-12-04T01:38:35;8.32;;;5.88;;
21868;SDS011;11099;41.564;23.296;2023-12-04T01:41:05;6.32;;;5.47;;
21868;SDS011;11099;41.564;23.296;2023-12-04T01:43:34;6.72;;;5.93;;
21868;SDS011;11099;41.564;23.296;2023-12-04T01:46:03;7.38;;;5.95;;
21868;SDS011;11099;41.564;23.296;2023-12-04T01:48:33;9.23;;;6.22;;
21868;SDS011;11099;41.564;23.296;2023-12-04T01:51:06;12.52;;;7.53;;
21868;SDS011;11099;41.564;23.296;2023-12-04T01:53:45;9.60;;;7.20;;
21868;SDS011;11099;41.564;23.296;2023-12-04T01:56:22;11.52;;;7.57;;
21868;SDS011;11099;41.564;23.296;2023-12-04T01:58:55;7.75;;;6.95;;
21868;SDS011;11099;41.564;23.296;2023-12-04T02:01:26;8.27;;;6.70;;
21868;SDS011;11099;41.564;23.296;2023-12-04T02:04:01;10.45;;;6.30;;
21868;SDS011;11099;41.564;23.296;2023-12-04T02:06:42;7.20;;;4.93;;
21868;SDS011;11099;41.564;23.296;2023-12-04T02:09:11;6.18;;;5.00;;
21868;SDS011;11099;41.564;23.296;2023-12-04T02:11:40;6.65;;;4.70;;
21868;SDS011;11099;41.564;23.296;2023-12-04T02:14:11;8.02;;;5.55;;
21868;SDS011;11099;41.564;23.296;2023-12-04T02:16:47;7.05;;;5.43;;
21868;SDS011;11099;41.564;23.296;2023-12-04T02:19:14;8.25;;;6.50;;
21868;SDS011;11099;41.564;23.296;2023-12-04T02:21:45;9.05;;;6.57;;
21868;SDS011;11099;41.564;23.296;2023-12-04T02:24:15;8.57;;;5.35;;
21868;SDS011;11099;41.564;23.296;2023-12-04T02:26:47;5.90;;;5.30;;
21868;SDS011;11099;41.564;23.296;2023-12-04T02:29:39;5.88;;;4.35;;
21868;SDS011;11099;41.564;23.296;2023-12-04T02:32:13;4.43;;;3.67;;
21868;SDS011;11099;41.564;23.296;2023-12-04T02:34:44;7.00;;;4.10;;
21868;SDS011;11099;41.564;23.296;2023-12-04T02:37:20;5.35;;;4.28;;
21868;SDS011;11099;41.564;23.296;2023-12-04T02:39:50;6.13;;;4.30;;
21868;SDS011;11099;41.564;23.296;2023-12-04T02:42:22;5.53;;;4.00;;
21868;SDS011;11099;41.564;23.296;2023-12-04T02:44:51;6.85;;;4.20;;
21868;SDS011;11099;41.564;23.296;2023-12-04T02:47:17;4.82;;;4.32;;
21868;SDS011;11099;41.564;23.296;2023-12-04T02:49:46;7.60;;;4.55;;
21868;SDS011;11099;41.564;23.296;2023-12-04T02:52:18;6.22;;;4.55;;
21868;SDS011;11099;41.564;23.296;2023-12-04T02:54:48;5.47;;;4.43;;
21868;SDS011;11099;41.564;23.296;2023-12-04T03:00:03;5.60;;;4.60;;
21868;SDS011;11099;41.564;23.296;2023-12-04T03:02:31;6.13;;;5.00;;
21868;SDS011;11099;41.564;23.296;2023-12-04T03:04:59;7.60;;;4.40;;
21868;SDS011;11099;41.564;23.296;2023-12-04T03:07:25;8.20;;;4.75;;
21868;SDS011;11099;41.564;23.296;2023-12-04T03:09:53;5.65;;;4.68;;
21868;SDS011;11099;41.564;23.296;2023-12-04T03:12:27;8.27;;;6.38;;
21868;SDS011;11099;41.564;23.296;2023-12-04T03:14:53;7.78;;;5.90;;
21868;SDS011;11099;41.564;23.296;2023-12-04T03:17:21;8.00;;;5.85;;
21868;SDS011;11099;41.564;23.296;2023-12-04T03:19:48;8.85;;;5.10;;
21868;SDS011;11099;41.564;23.296;2023-12-04T03:22:21;12.15;;;6.13;;
21868;SDS011;11099;41.564;23.296;2023-12-04T03:24:51;7.90;;;5.80;;
21868;SDS011;11099;41.564;23.296;2023-12-04T03:27:23;10.57;;;6.75;;
21868;SDS011;11099;41.564;23.296;2023-12-04T03:29:50;7.75;;;6.38;;
21868;SDS011;11099;41.564;23.296;2023-12-04T03:32:22;9.00;;;6.40;;
21868;SDS011;11099;41.564;23.296;2023-12-04T03:34:52;10.98;;;6.03;;
21868;SDS011;11099;41.564;23.296;2023-12-04T03:37:18;7.88;;;5.82;;
21868;SDS011;11099;41.564;23.296;2023-12-04T03:39:46;9.32;;;6.47;;
21868;SDS011;11099;41.564;23.296;2023-12-04T03:42:16;8.38;;;5.93;;
21868;SDS011;11099;41.564;23.296;2023-12-04T03:44:46;10.43;;;6.70;;
21868;SDS011;11099;41.564;23.296;2023-12-04T03:47:13;10.18;;;6.63;;
21868;SDS011;11099;41.564;23.296;2023-12-04T03:49:44;7.85;;;5.97;;
21868;SDS011;11099;41.564;23.296;2023-12-04T03:52:16;8.95;;;6.07;;
21868;SDS011;11099;41.564;23.296;2023-12-04T03:54:44;9.63;;;6.57;;
21868;SDS011;11099;41.564;23.296;2023-12-04T03:57:16;13.23;;;6.97;;
21868;SDS011;11099;41.564;23.296;2023-12-04T03:59:43;10.15;;;6.57;;
21868;SDS011;11099;41.564;23.296;2023-12-04T04:02:11;9.13;;;6.45;;
21868;SDS011;11099;41.564;23.296;2023-12-04T04:04:39;9.43;;;6.35;;
21868;SDS011;11099;41.564;23.296;2023-12-04T04:07:09;9.02;;;6.45;;
21868;SDS011;11099;41.564;23.296;2023-12-04T04:09:51;10.25;;;7.03;;
21868;SDS011;11099;41.564;23.296;2023-12-04T04:12:19;7.97;;;6.60;;
21868;SDS011;11099;41.564;23.296;2023-12-04T04:14:48;11.23;;;6.78;;
21868;SDS011;11099;41.564;23.296;2023-12-04T04:19:54;9.38;;;7.13;;
21868;SDS011;11099;41.564;23.296;2023-12-04T04:22:42;7.65;;;6.85;;
21868;SDS011;11099;41.564;23.296;2023-12-04T04:27:44;10.85;;;6.90;;
21868;SDS011;11099;41.564;23.296;2023-12-04T04:30:15;10.43;;;7.00;;
21868;SDS011;11099;41.564;23.296;2023-12-04T04:32:43;6.63;;;5.82;;
21868;SDS011;11099;41.564;23.296;2023-12-04T04:35:10;8.93;;;6.35;;
21868;SDS011;11099;41.564;23.296;2023-12-04T04:37:39;9.38;;;6.65;;
21868;SDS011;11099;41.564;23.296;2023-12-04T04:40:16;8.82;;;5.93;;
21868;SDS011;11099;41.564;23.296;2023-12-04T04:42:43;9.70;;;6.90;;
21868;SDS011;11099;41.564;23.296;2023-12-04T04:45:16;11.75;;;7.05;;
21868;SDS011;11099;41.564;23.296;2023-12-04T04:47:49;8.75;;;6.97;;
21868;SDS011;11099;41.564;23.296;2023-12-04T04:50:19;8.50;;;7.20;;
21868;SDS011;11099;41.564;23.296;2023-12-04T04:52:56;11.23;;;7.25;;
21868;SDS011;11099;41.564;23.296;2023-12-04T04:55:23;19.45;;;9.68;;
21868;SDS011;11099;41.564;23.296;2023-12-04T04:57:52;21.95;;;9.82;;
21868;SDS011;11099;41.564;23.296;2023-12-04T05:00:21;13.93;;;8.15;;
21868;SDS011;11099;41.564;23.296;2023-12-04T05:05:49;10.57;;;7.10;;
21868;SDS011;11099;41.564;23.296;2023-12-04T05:08:25;9.50;;;6.75;;
21868;SDS011;11099;41.564;23.296;2023-12-04T05:13:32;11.77;;;8.52;;
21868;SDS011;11099;41.564;23.296;2023-12-04T05:15:58;15.55;;;9.60;;
21868;SDS011;11099;41.564;23.296;2023-12-04T05:18:27;9.32;;;7.30;;
21868;SDS011;11099;41.564;23.296;2023-12-04T05:20:57;11.43;;;6.95;;
21868;SDS011;11099;41.564;23.296;2023-12-04T05:23:28;9.38;;;6.32;;
21868;SDS011;11099;41.564;23.296;2023-12-04T05:31:49;11.68;;;7.20;;
21868;SDS011;11099;41.564;23.296;2023-12-04T05:34:25;14.05;;;8.82;;
21868;SDS011;11099;41.564;23.296;2023-12-04T05:39:33;11.52;;;8.50;;
21868;SDS011;11099;41.564;23.296;2023-12-04T05:44:37;15.27;;;9.35;;
21868;SDS011;11099;41.564;23.296;2023-12-04T05:47:03;13.20;;;8.52;;
21868;SDS011;11099;41.564;23.296;2023-12-04T05:49:29;9.73;;;7.57;;
21868;SDS011;11099;41.564;23.296;2023-12-04T05:52:01;13.40;;;7.80;;
21868;SDS011;11099;41.564;23.296;2023-12-04T05:54:27;14.32;;;7.47;;
21868;SDS011;11099;41.564;23.296;2023-12-04T05:56:53;10.35;;;7.28;;
21868;SDS011;11099;41.564;23.296;2023-12-04T05:59:18;11.00;;;7.13;;
21868;SDS011;11099;41.564;23.296;2023-12-04T06:01:44;14.00;;;7.07;;
21868;SDS011;11099;41.564;23.296;2023-12-04T06:04:10;16.45;;;8.65;;
21868;SDS011;11099;41.564;23.296;2023-12-04T06:06:35;9.85;;;7.20;;
21868;SDS011;11099;41.564;23.296;2023-12-04T06:09:01;11.27;;;8.80;;
21868;SDS011;11099;41.564;23.296;2023-12-04T06:11:27;10.85;;;7.68;;
21868;SDS011;11099;41.564;23.296;2023-12-04T06:13:52;9.93;;;7.20;;
21868;SDS011;11099;41.564;23.296;2023-12-04T06:16:18;15.43;;;9.15;;
21868;SDS011;11099;41.564;23.296;2023-12-04T06:18:44;14.40;;;7.80;;
21868;SDS011;11099;41.564;23.296;2023-12-04T06:21:09;10.32;;;7.18;;
21868;SDS011;11099;41.564;23.296;2023-12-04T06:23:35;14.57;;;6.25;;
21868;SDS011;11099;41.564;23.296;2023-12-04T06:26:01;12.73;;;6.95;;
21868;SDS011;11099;41.564;23.296;2023-12-04T06:28:27;15.68;;;8.50;;
21868;SDS011;11099;41.564;23.296;2023-12-04T06:30:53;11.15;;;8.60;;
21868;SDS011;11099;41.564;23.296;2023-12-04T06:33:19;15.75;;;10.88;;
21868;SDS011;11099;41.564;23.296;2023-12-04T06:35:45;18.35;;;9.82;;
21868;SDS011;11099;41.564;23.296;2023-12-04T06:38:12;11.90;;;7.85;;
21868;SDS011;11099;41.564;23.296;2023-12-04T06:40:41;11.40;;;6.57;;
21868;SDS011;11099;41.564;23.296;2023-12-04T06:43:07;6.65;;;5.60;;
21868;SDS011;11099;41.564;23.296;2023-12-04T06:45:32;7.82;;;5.80;;
21868;SDS011;11099;41.564;23.296;2023-12-04T06:47:59;8.57;;;5.82;;
21868;SDS011;11099;41.564;23.296;2023-12-04T06:50:25;8.98;;;5.75;;
21868;SDS011;11099;41.564;23.296;2023-12-04T06:52:51;10.82;;;7.70;;
21868;SDS011;11099;41.564;23.296;2023-12-04T06:55:17;6.85;;;5.47;;
21868;SDS011;11099;41.564;23.296;2023-12-04T06:57:43;9.02;;;5.57;;
21868;SDS011;11099;41.564;23.296;2023-12-04T07:00:08;11.82;;;7.35;;
21868;SDS011;11099;41.564;23.296;2023-12-04T07:02:39;9.18;;;6.30;;
21868;SDS011;11099;41.564;23.296;2023-12-04T07:05:05;8.23;;;6.57;;
21868;SDS011;11099;41.564;23.296;2023-12-04T07:07:31;16.17;;;9.02;;
21868;SDS011;11099;41.564;23.296;2023-12-04T07:09:57;13.05;;;9.25;;
21868;SDS011;11099;41.564;23.296;2023-12-04T07:12:22;14.60;;;9.90;;
21868;SDS011;11099;41.564;23.296;2023-12-04T07:14:48;13.70;;;9.15;;
21868;SDS011;11099;41.564;23.296;2023-12-04T07:17:13;11.80;;;9.32;;
21868;SDS011;11099;41.564;23.296;2023-12-04T07:19:40;10.98;;;9.35;;
21868;SDS011;11099;41.564;23.296;2023-12-04T07:22:06;10.40;;;8.27;;
21868;SDS011;11099;41.564;23.296;2023-12-04T07:24:32;11.80;;;6.75;;
21868;SDS011;11099;41.564;23.296;2023-12-04T07:26:58;14.15;;;8.18;;
21868;SDS011;11099;41.564;23.296;2023-12-04T07:29:24;8.82;;;6.80;;
21868;SDS011;11099;41.564;23.296;2023-12-04T07:31:49;10.77;;;6.78;;
21868;SDS011;11099;41.564;23.296;2023-12-04T07:34:15;10.43;;;7.78;;
21868;SDS011;11099;41.564;23.296;2023-12-04T07:36:40;10.65;;;6.80;;
21868;SDS011;11099;41.564;23.296;2023-12-04T07:39:06;14.77;;;7.88;;
21868;SDS011;11099;41.564;23.296;2023-12-04T07:41:32;13.35;;;6.22;;
21868;SDS011;11099;41.564;23.296;2023-12-04T07:43:58;12.55;;;7.00;;
21868;SDS011;11099;41.564;23.296;2023-12-04T07:46:23;9.65;;;6.45;;
21868;SDS011;11099;41.564;23.296;2023-12-04T07:48:50;10.65;;;7.50;;
21868;SDS011;11099;41.564;23.296;2023-12-04T07:51:16;8.75;;;5.00;;
21868;SDS011;11099;41.564;23.296;2023-12-04T07:53:42;9.90;;;6.22;;
21868;SDS011;11099;41.564;23.296;2023-12-04T07:56:07;9.48;;;7.45;;
21868;SDS011;11099;41.564;23.296;2023-12-04T07:58:33;15.15;;;7.75;;
21868;SDS011;11099;41.564;23.296;2023-12-04T08:01:02;32.47;;;15.77;;
21868;SDS011;11099;41.564;23.296;2023-12-04T08:03:28;10.27;;;7.05;;
21868;SDS011;11099;41.564;23.296;2023-12-04T08:05:54;10.50;;;8.45;;
21868;SDS011;11099;41.564;23.296;2023-12-04T08:08:19;7.72;;;6.00;;
21868;SDS011;11099;41.564;23.296;2023-12-04T08:10:46;13.35;;;8.30;;
21868;SDS011;11099;41.564;23.296;2023-12-04T08:13:12;20.98;;;11.30;;
21868;SDS011;11099;41.564;23.296;2023-12-04T08:15:38;16.30;;;11.57;;
21868;SDS011;11099;41.564;23.296;2023-12-04T08:18:04;16.95;;;10.98;;
21868;SDS011;11099;41.564;23.296;2023-12-04T08:20:29;14.35;;;8.68;;
21868;SDS011;11099;41.564;23.296;2023-12-04T08:22:55;17.58;;;10.25;;
21868;SDS011;11099;41.564;23.296;2023-12-04T08:25:21;11.00;;;6.05;;
21868;SDS011;11099;41.564;23.296;2023-12-04T08:27:46;13.68;;;8.70;;
21868;SDS011;11099;41.564;23.296;2023-12-04T08:30:14;17.15;;;9.20;;
21868;SDS011;11099;41.564;23.296;2023-12-04T08:32:40;12.27;;;6.80;;
21868;SDS011;11099;41.564;23.296;2023-12-04T08:35:06;14.57;;;9.90;;
21868;SDS011;11099;41.564;23.296;2023-12-04T08:37:32;9.93;;;7.03;;
21868;SDS011;11099;41.564;23.296;2023-12-04T08:39:57;9.57;;;7.00;;
21868;SDS011;11099;41.564;23.296;2023-12-04T08:42:23;8.90;;;6.10;;
21868;SDS011;11099;41.564;23.296;2023-12-04T08:44:49;7.63;;;5.43;;
21868;SDS011;11099;41.564;23.296;2023-12-04T08:47:15;11.45;;;6.15;;
21868;SDS011;11099;41.564;23.296;2023-12-04T08:49:40;7.75;;;6.32;;
21868;SDS011;11099;41.564;23.296;2023-12-04T08:52:06;9.90;;;7.18;;
21868;SDS011;11099;41.564;23.296;2023-12-04T08:54:33;9.00;;;6.40;;
21868;SDS011;11099;41.564;23.296;2023-12-04T08:56:59;8.60;;;6.20;;
21868;SDS011;11099;41.564;23.296;2023-12-04T08:59:25;8.55;;;6.28;;
21868;SDS011;11099;41.564;23.296;2023-12-04T09:01:50;7.75;;;6.20;;
21868;SDS011;11099;41.564;23.296;2023-12-04T09:04:16;8.70;;;6.25;;
21868;SDS011;11099;41.564;23.296;2023-12-04T09:06:42;10.45;;;6.75;;
21868;SDS011;11099;41.564;23.296;2023-12-04T09:09:07;10.45;;;6.63;;
21868;SDS011;11099;41.564;23.296;2023-12-04T09:11:33;13.23;;;9.13;;
21868;SDS011;11099;41.564;23.296;2023-12-04T09:13:59;8.98;;;6.85;;
21868;SDS011;11099;41.564;23.296;2023-12-04T09:16:25;12.20;;;8.75;;
21868;SDS011;11099;41.564;23.296;2023-12-04T09:18:51;7.40;;;5.97;;
21868;SDS011;11099;41.564;23.296;2023-12-04T09:21:18;7.35;;;5.65;;
21868;SDS011;11099;41.564;23.296;2023-12-04T09:23:44;7.43;;;5.13;;
21868;SDS011;11099;41.564;23.296;2023-12-04T09:26:15;5.70;;;4.82;;
21868;SDS011;11099;41.564;23.296;2023-12-04T09:28:45;8.30;;;7.20;;
21868;SDS011;11099;41.564;23.296;2023-12-04T09:31:13;13.23;;;10.30;;
21868;SDS011;11099;41.564;23.296;2023-12-04T09:33:45;6.57;;;5.30;;
21868;SDS011;11099;41.564;23.296;2023-12-04T09:36:13;7.25;;;5.40;;
21868;SDS011;11099;41.564;23.296;2023-12-04T09:39:06;14.32;;;10.50;;
21868;SDS011;11099;41.564;23.296;2023-12-04T09:41:55;9.93;;;7.03;;
21868;SDS011;11099;41.564;23.296;2023-12-04T09:44:26;13.73;;;8.38;;
21868;SDS011;11099;41.564;23.296;2023-12-04T09:49:37;8.13;;;5.65;;
21868;SDS011;11099;41.564;23.296;2023-12-04T09:52:10;7.43;;;4.85;;
21868;SDS011;11099;41.564;23.296;2023-12-04T09:57:46;5.70;;;3.83;;
21868;SDS011;11099;41.564;23.296;2023-12-04T10:00:18;5.32;;;3.47;;
21868;SDS011;11099;41.564;23.296;2023-12-04T10:02:55;5.78;;;3.83;;
21868;SDS011;11099;41.564;23.296;2023-12-04T10:05:24;5.78;;;3.42;;
21868;SDS011;11099;41.564;23.296;2023-12-04T10:07:56;4.05;;;3.30;;
21868;SDS011;11099;41.564;23.296;2023-12-04T10:10:23;4.32;;;3.42;;
21868;SDS011;11099;41.564;23.296;2023-12-04T10:12:58;7.25;;;3.55;;
21868;SDS011;11099;41.564;23.296;2023-12-04T10:15:25;6.65;;;3.63;;
21868;SDS011;11099;41.564;23.296;2023-12-04T10:17:52;5.50;;;3.47;;
21868;SDS011;11099;41.564;23.296;2023-12-04T10:20:24;4.63;;;3.60;;
21868;SDS011;11099;41.564;23.296;2023-12-04T10:23:20;5.95;;;3.33;;
21868;SDS011;11099;41.564;23.296;2023-12-04T10:25:48;4.90;;;2.97;;
21868;SDS011;11099;41.564;23.296;2023-12-04T10:28:16;4.80;;;3.67;;
21868;SDS011;11099;41.564;23.296;2023-12-04T10:30:58;5.00;;;3.30;;
21868;SDS011;11099;41.564;23.296;2023-12-04T10:33:42;5.35;;;3.20;;
21868;SDS011;11099;41.564;23.296;2023-12-04T10:36:17;7.05;;;3.42;;
21868;SDS011;11099;41.564;23.296;2023-12-04T10:41:44;4.55;;;3.55;;
21868;SDS011;11099;41.564;23.296;2023-12-04T10:44:52;3.67;;;3.30;;
21868;SDS011;11099;41.564;23.296;2023-12-04T10:47:21;4.32;;;3.38;;
21868;SDS011;11099;41.564;23.296;2023-12-04T10:49:48;4.90;;;3.78;;
21868;SDS011;11099;41.564;23.296;2023-12-04T10:52:15;4.30;;;3.28;;
21868;SDS011;11099;41.564;23.296;2023-12-04T10:54:41;3.47;;;3.00;;
21868;SDS011;11099;41.564;23.296;2023-12-04T10:57:07;3.78;;;3.05;;
21868;SDS011;11099;41.564;23.296;2023-12-04T10:59:36;3.65;;;3.13;;
21868;SDS011;11099;41.564;23.296;2023-12-04T11:02:04;8.98;;;3.03;;
21868;SDS011;11099;41.564;23.296;2023-12-04T11:04:38;4.60;;;3.03;;
21868;SDS011;11099;41.564;23.296;2023-12-04T11:07:05;3.80;;;2.97;;
21868;SDS011;11099;41.564;23.296;2023-12-04T11:09:35;3.33;;;2.97;;
21868;SDS011;11099;41.564;23.296;2023-12-04T11:12:02;4.40;;;3.50;;
21868;SDS011;11099;41.564;23.296;2023-12-04T11:14:34;3.15;;;2.85;;
21868;SDS011;11099;41.564;23.296;2023-12-04T11:17:08;4.03;;;3.20;;
21868;SDS011;11099;41.564;23.296;2023-12-04T11:19:43;4.65;;;3.75;;
21868;SDS011;11099;41.564;23.296;2023-12-04T11:22:32;6.28;;;3.83;;
21868;SDS011;11099;41.564;23.296;2023-12-04T11:25:02;4.80;;;3.50;;
21868;SDS011;11099;41.564;23.296;2023-12-04T11:27:30;4.43;;;3.38;;
21868;SDS011;11099;41.564;23.296;2023-12-04T11:29:57;4.63;;;3.50;;
21868;SDS011;11099;41.564;23.296;2023-12-04T11:32:24;5.72;;;3.35;;
21868;SDS011;11099;41.564;23.296;2023-12-04T11:37:27;5.43;;;3.20;;
21868;SDS011;11099;41.564;23.296;2023-12-04T11:39:53;4.10;;;2.83;;
21868;SDS011;11099;41.564;23.296;2023-12-04T11:42:24;5.30;;;3.25;;
21868;SDS011;11099;41.564;23.296;2023-12-04T11:44:57;4.93;;;3.28;;
21868;SDS011;11099;41.564;23.296;2023-12-04T11:47:23;3.85;;;3.33;;
21868;SDS011;11099;41.564;23.296;2023-12-04T11:49:49;6.88;;;4.00;;
21868;SDS011;11099;41.564;23.296;2023-12-04T11:52:15;6.78;;;3.80;;
21868;SDS011;11099;41.564;23.296;2023-12-04T11:55:00;9.20;;;3.70;;
21868;SDS011;11099;41.564;23.296;2023-12-04T11:57:35;4.88;;;3.70;;
21868;SDS011;11099;41.564;23.296;2023-12-04T12:05:17;8.75;;;5.57;;
21868;SDS011;11099;41.564;23.296;2023-12-04T12:07:44;4.05;;;3.38;;
21868;SDS011;11099;41.564;23.296;2023-12-04T12:10:11;4.38;;;3.70;;
21868;SDS011;11099;41.564;23.296;2023-12-04T12:12:40;6.20;;;3.67;;
21868;SDS011;11099;41.564;23.296;2023-12-04T12:15:09;5.97;;;3.40;;
21868;SDS011;11099;41.564;23.296;2023-12-04T12:17:39;5.90;;;3.83;;
21868;SDS011;11099;41.564;23.296;2023-12-04T12:20:06;10.75;;;8.85;;
21868;SDS011;11099;41.564;23.296;2023-12-04T12:22:34;5.80;;;3.65;;
21868;SDS011;11099;41.564;23.296;2023-12-04T12:25:03;6.22;;;4.13;;
21868;SDS011;11099;41.564;23.296;2023-12-04T12:27:30;6.05;;;4.25;;
21868;SDS011;11099;41.564;23.296;2023-12-04T12:29:56;7.38;;;3.80;;
21868;SDS011;11099;41.564;23.296;2023-12-04T12:32:22;9.38;;;5.05;;
21868;SDS011;11099;41.564;23.296;2023-12-04T12:34:48;4.65;;;4.20;;
21868;SDS011;11099;41.564;23.296;2023-12-04T12:37:14;10.27;;;4.72;;
21868;SDS011;11099;41.564;23.296;2023-12-04T12:39:40;4.13;;;3.65;;
21868;SDS011;11099;41.564;23.296;2023-12-04T12:42:06;4.40;;;3.80;;
21868;SDS011;11099;41.564;23.296;2023-12-04T12:44:37;6.35;;;3.90;;
21868;SDS011;11099;41.564;23.296;2023-12-04T12:47:06;6.80;;;4.10;;
21868;SDS011;11099;41.564;23.296;2023-12-04T12:49:32;5.95;;;4.25;;
21868;SDS011;11099;41.564;23.296;2023-12-04T12:52:01;8.25;;;4.13;;
21868;SDS011;11099;41.564;23.296;2023-12-04T12:54:28;4.30;;;3.42;;
21868;SDS011;11099;41.564;23.296;2023-12-04T12:56:58;9.23;;;4.05;;
21868;SDS011;11099;41.564;23.296;2023-12-04T12:59:24;10.05;;;7.70;;
21868;SDS011;11099;41.564;23.296;2023-12-04T13:01:50;7.70;;;5.35;;
21868;SDS011;11099;41.564;23.296;2023-12-04T13:04:17;12.05;;;9.65;;
21868;SDS011;11099;41.564;23.296;2023-12-04T13:06:44;7.65;;;5.43;;
21868;SDS011;11099;41.564;23.296;2023-12-04T13:09:11;14.98;;;9.40;;
21868;SDS011;11099;41.564;23.296;2023-12-04T13:11:44;11.10;;;9.85;;
21868;SDS011;11099;41.564;23.296;2023-12-04T13:14:14;13.93;;;11.05;;
21868;SDS011;11099;41.564;23.296;2023-12-04T13:16:41;20.85;;;11.07;;
21868;SDS011;11099;41.564;23.296;2023-12-04T13:19:07;18.55;;;13.25;;
21868;SDS011;11099;41.564;23.296;2023-12-04T13:21:33;11.65;;;8.65;;
21868;SDS011;11099;41.564;23.296;2023-12-04T13:23:59;11.35;;;8.25;;
21868;SDS011;11099;41.564;23.296;2023-12-04T13:26:26;12.10;;;9.40;;
21868;SDS011;11099;41.564;23.296;2023-12-04T13:28:52;13.20;;;9.82;;
21868;SDS011;11099;41.564;23.296;2023-12-04T13:31:18;22.90;;;15.10;;
21868;SDS011;11099;41.564;23.296;2023-12-04T13:33:45;10.55;;;7.80;;
21868;SDS011;11099;41.564;23.296;2023-12-04T13:36:12;16.85;;;11.38;;
21868;SDS011;11099;41.564;23.296;2023-12-04T13:38:38;13.15;;;8.65;;
21868;SDS011;11099;41.564;23.296;2023-12-04T13:41:04;10.27;;;8.13;;
21868;SDS011;11099;41.564;23.296;2023-12-04T13:43:56;10.10;;;7.47;;
21868;SDS011;11099;41.564;23.296;2023-12-04T13:46:25;14.18;;;10.75;;
21868;SDS011;11099;41.564;23.296;2023-12-04T13:48:52;15.85;;;12.02;;
21868;SDS011;11099;41.564;23.296;2023-12-04T13:51:18;19.70;;;13.95;;
21868;SDS011;11099;41.564;23.296;2023-12-04T13:53:45;38.60;;;24.65;;
21868;SDS011;11099;41.564;23.296;2023-12-04T13:56:14;27.73;;;20.02;;
21868;SDS011;11099;41.564;23.296;2023-12-04T13:58:46;23.38;;;17.60;;
21868;SDS011;11099;41.564;23.296;2023-12-04T14:01:18;19.02;;;14.82;;
21868;SDS011;11099;41.564;23.296;2023-12-04T14:03:48;15.75;;;12.30;;
21868;SDS011;11099;41.564;23.296;2023-12-04T14:06:13;16.25;;;12.20;;
21868;SDS011;11099;41.564;23.296;2023-12-04T14:08:41;15.63;;;10.90;;
21868;SDS011;11099;41.564;23.296;2023-12-04T14:11:07;14.82;;;10.60;;
21868;SDS011;11099;41.564;23.296;2023-12-04T14:13:35;14.95;;;11.38;;
21868;SDS011;11099;41.564;23.296;2023-12-04T14:16:00;15.18;;;11.10;;
21868;SDS011;11099;41.564;23.296;2023-12-04T14:18:27;16.52;;;12.23;;
21868;SDS011;11099;41.564;23.296;2023-12-04T14:20:55;23.50;;;17.38;;
21868;SDS011;11099;41.564;23.296;2023-12-04T14:23:21;22.55;;;15.68;;
21868;SDS011;11099;41.564;23.296;2023-12-04T14:25:47;20.98;;;16.67;;
21868;SDS011;11099;41.564;23.296;2023-12-04T14:28:13;24.42;;;15.25;;
21868;SDS011;11099;41.564;23.296;2023-12-04T14:30:39;24.88;;;16.58;;
21868;SDS011;11099;41.564;23.296;2023-12-04T14:33:05;36.80;;;21.10;;
21868;SDS011;11099;41.564;23.296;2023-12-04T14:35:31;18.08;;;13.27;;
21868;SDS011;11099;41.564;23.296;2023-12-04T14:37:57;19.17;;;13.00;;
21868;SDS011;11099;41.564;23.296;2023-12-04T14:40:22;16.02;;;12.05;;
21868;SDS011;11099;41.564;23.296;2023-12-04T14:42:49;17.27;;;13.27;;
21868;SDS011;11099;41.564;23.296;2023-12-04T14:45:18;29.23;;;23.52;;
21868;SDS011;11099;41.564;23.296;2023-12-04T14:47:44;25.90;;;19.98;;
21868;SDS011;11099;41.564;23.296;2023-12-04T14:50:13;103.22;;;56.70;;
21868;SDS011;11099;41.564;23.296;2023-12-04T14:52:39;52.75;;;31.17;;
21868;SDS011;11099;41.564;23.296;2023-12-04T14:55:13;74.88;;;36.72;;
21868;SDS011;11099;41.564;23.296;2023-12-04T14:57:39;26.73;;;16.95;;
21868;SDS011;11099;41.564;23.296;2023-12-04T15:00:07;33.30;;;21.27;;
21868;SDS011;11099;41.564;23.296;2023-12-04T15:02:53;53.13;;;31.17;;
21868;SDS011;11099;41.564;23.296;2023-12-04T15:05:24;46.55;;;29.80;;
21868;SDS011;11099;41.564;23.296;2023-12-04T15:08:08;63.55;;;39.92;;
21868;SDS011;11099;41.564;23.296;2023-12-04T15:10:49;53.38;;;34.00;;
21868;SDS011;11099;41.564;23.296;2023-12-04T15:13:44;39.03;;;25.50;;
21868;SDS011;11099;41.564;23.296;2023-12-04T15:16:28;45.10;;;30.73;;
21868;SDS011;11099;41.564;23.296;2023-12-04T15:19:01;37.00;;;26.98;;
21868;SDS011;11099;41.564;23.296;2023-12-04T15:21:29;29.77;;;22.00;;